createdAt,value
2019-05-13T00:00:53.943Z,102041.70
2019-05-13T00:02:30.090Z,102045.76
2019-05-13T00:04:06.046Z,102044.29
2019-05-13T00:05:44.245Z,102050.24
2019-05-13T00:07:19.583Z,102049.95
2019-05-13T00:08:55.832Z,102044.53
2019-05-13T00:10:31.722Z,102043.92
2019-05-13T00:12:07.662Z,102044.67
2019-05-13T00:13:44.436Z,102052.03
2019-05-13T00:15:20.420Z,102045.55
2019-05-13T00:16:56.589Z,102044.07
2019-05-13T00:18:34.033Z,102050.69
2019-05-13T00:20:10.579Z,102052.81
2019-05-13T00:21:46.483Z,102052.20
2019-05-13T00:23:23.390Z,102052.41
2019-05-13T00:24:59.726Z,102056.78
2019-05-13T00:26:35.577Z,102062.76
2019-05-13T00:28:11.480Z,102063.82
2019-05-13T00:29:47.396Z,102062.66
2019-05-13T00:31:24.123Z,102063.08
2019-05-13T00:33:00.145Z,102063.53
2019-05-13T00:34:36.388Z,102073.66
2019-05-13T00:36:14.262Z,102068.55
2019-05-13T00:37:49.888Z,102072.59
2019-05-13T00:39:25.783Z,102072.21
2019-05-13T00:41:03.706Z,102072.12
2019-05-13T00:42:39.254Z,102080.08
2019-05-13T00:44:15.156Z,102081.05
2019-05-13T00:45:52.867Z,102084.25
2019-05-13T00:47:28.625Z,102083.06
2019-05-13T00:49:04.868Z,102091.25
2019-05-13T00:50:40.973Z,102086.50
2019-05-13T00:52:16.851Z,102088.32
2019-05-13T00:53:53.663Z,102090.12
2019-05-13T00:55:29.755Z,102086.93
2019-05-13T00:57:06.292Z,102088.98
2019-05-13T00:58:43.656Z,102086.44
2019-05-13T01:00:20.478Z,102079.08
2019-05-13T01:01:56.366Z,102085.88
2019-05-13T01:03:33.828Z,102091.84
2019-05-13T01:05:11.364Z,102091.75
2019-05-13T01:06:47.254Z,102089.94
2019-05-13T01:08:24.021Z,102095.87
2019-05-13T01:09:59.930Z,102097.15
2019-05-13T01:11:36.118Z,102091.23
2019-05-13T01:13:13.634Z,102089.20
2019-05-13T01:14:50.301Z,102096.55
2019-05-13T01:16:26.204Z,102092.62
2019-05-13T01:18:04.078Z,102093.90
2019-05-13T01:19:40.169Z,102092.41
2019-05-13T01:21:16.319Z,102101.09
2019-05-13T01:22:54.142Z,102098.56
2019-05-13T01:24:29.883Z,102097.07
2019-05-13T01:26:05.859Z,102096.64
2019-05-13T01:27:44.219Z,102099.62
2019-05-13T01:29:19.830Z,102100.89
2019-05-13T01:30:56.867Z,102094.75
2019-05-13T01:32:34.323Z,102099.62
2019-05-13T01:34:14.092Z,102095.38
2019-05-13T01:35:49.534Z,102097.48
2019-05-13T01:37:39.070Z,102095.99
2019-05-13T01:39:04.243Z,102098.97
2019-05-13T01:40:40.207Z,102100.46
2019-05-13T01:42:16.105Z,102102.27
2019-05-13T01:43:54.331Z,102103.55
2019-05-13T01:45:30.014Z,102102.34
2019-05-13T01:47:06.169Z,102101.73
2019-05-13T01:48:43.745Z,102105.22
2019-05-13T01:50:19.756Z,102106.80
2019-05-13T01:51:55.940Z,102109.45
2019-05-13T01:53:33.642Z,102114.64
2019-05-13T01:55:09.944Z,102117.11
2019-05-13T01:56:45.832Z,102118.67
2019-05-13T01:58:23.597Z,102109.45
2019-05-13T01:59:59.595Z,102112.93
2019-05-13T02:01:35.768Z,102110.06
2019-05-13T02:03:14.520Z,102107.52
2019-05-13T02:04:53.134Z,102109.95
2019-05-13T02:06:29.221Z,102110.38
2019-05-13T02:08:05.282Z,102113.89
2019-05-13T02:09:41.178Z,102115.67
2019-05-13T02:11:17.072Z,102120.86
2019-05-13T02:12:53.567Z,102118.85
2019-05-13T02:14:29.553Z,102123.71
2019-05-13T02:16:05.434Z,102123.71
2019-05-13T02:17:41.397Z,102125.84
2019-05-13T02:19:17.289Z,102125.19
2019-05-13T02:20:55.276Z,102128.16
2019-05-13T02:22:30.893Z,102130.05
2019-05-13T02:24:06.797Z,102133.02
2019-05-13T02:25:43.942Z,102141.71
2019-05-13T02:27:19.831Z,102142.77
2019-05-13T02:28:55.738Z,102139.38
2019-05-13T02:30:35.034Z,102140.94
2019-05-13T02:32:13.262Z,102144.66
2019-05-13T02:33:46.879Z,102142.63
2019-05-13T02:35:23.847Z,102151.31
2019-05-13T02:37:02.847Z,102148.11
2019-05-13T02:38:37.337Z,102146.61
2019-05-13T02:40:13.978Z,102142.84
2019-05-13T02:41:52.643Z,102151.31
2019-05-13T02:43:27.809Z,102151.20
2019-05-13T02:45:04.147Z,102159.34
2019-05-13T02:46:43.975Z,102154.46
2019-05-13T02:48:17.913Z,102152.75
2019-05-13T02:49:53.861Z,102149.22
2019-05-13T02:51:32.675Z,102155.27
2019-05-13T02:53:07.338Z,102153.23
2019-05-13T02:54:43.279Z,102151.22
2019-05-13T02:56:22.395Z,102157.15
2019-05-13T02:57:56.771Z,102153.52
2019-05-13T02:59:33.689Z,102156.16
2019-05-13T03:01:12.599Z,102163.45
2019-05-13T03:02:48.759Z,102159.72
2019-05-13T03:04:24.946Z,102158.03
2019-05-13T03:06:02.929Z,102156.53
2019-05-13T03:07:38.462Z,102162.77
2019-05-13T03:09:14.361Z,102151.29
2019-05-13T03:10:53.126Z,102154.80
2019-05-13T03:12:28.115Z,102156.38
2019-05-13T03:14:05.064Z,102156.75
2019-05-13T03:15:42.827Z,102159.92
2019-05-13T03:17:22.790Z,102161.17
2019-05-13T03:18:58.581Z,102171.19
2019-05-13T03:20:35.745Z,102166.64
2019-05-13T03:22:13.449Z,102162.89
2019-05-13T03:23:52.236Z,102169.64
2019-05-13T03:25:27.880Z,102167.63
2019-05-13T03:27:04.151Z,102165.27
2019-05-13T03:28:43.069Z,102162.20
2019-05-13T03:30:17.754Z,102164.50
2019-05-13T03:31:55.665Z,102167.33
2019-05-13T03:33:36.911Z,102168.58
2019-05-13T03:35:09.004Z,102169.28
2019-05-13T03:36:46.889Z,102174.99
2019-05-13T03:38:23.783Z,102175.20
2019-05-13T03:40:03.410Z,102178.66
2019-05-13T03:41:42.267Z,102182.98
2019-05-13T03:43:18.386Z,102185.95
2019-05-13T03:44:55.593Z,102191.31
2019-05-13T03:46:34.105Z,102186.52
2019-05-13T03:48:12.203Z,102186.39
2019-05-13T03:49:53.254Z,102190.92
2019-05-13T03:51:27.991Z,102192.50
2019-05-13T03:53:04.321Z,102197.88
2019-05-13T03:54:43.306Z,102200.28
2019-05-13T03:56:18.373Z,102197.91
2019-05-13T03:57:53.902Z,102202.57
2019-05-13T03:59:33.094Z,102204.98
2019-05-13T04:01:07.891Z,102204.34
2019-05-13T04:02:44.460Z,102204.55
2019-05-13T04:04:23.341Z,102205.26
2019-05-13T04:05:58.020Z,102205.45
2019-05-13T04:07:33.598Z,102206.16
2019-05-13T04:09:25.169Z,102200.53
2019-05-13T04:10:47.391Z,102201.91
2019-05-13T04:12:28.106Z,102204.66
2019-05-13T04:14:03.190Z,102200.39
2019-05-13T04:15:42.566Z,102209.52
2019-05-13T04:17:16.914Z,102212.44
2019-05-13T04:18:53.850Z,102214.55
2019-05-13T04:20:29.569Z,102207.87
2019-05-13T04:22:06.209Z,102210.92
2019-05-13T04:23:42.879Z,102209.24
2019-05-13T04:25:22.818Z,102216.42
2019-05-13T04:26:56.561Z,102215.05
2019-05-13T04:28:33.423Z,102227.42
2019-05-13T04:30:13.294Z,102218.33
2019-05-13T04:31:49.017Z,102224.50
2019-05-13T04:33:24.561Z,102224.50
2019-05-13T04:35:03.770Z,102218.61
2019-05-13T04:36:38.392Z,102219.91
2019-05-13T04:38:14.669Z,102222.94
2019-05-13T04:39:54.927Z,102224.51
2019-05-13T04:41:42.403Z,102225.05
2019-05-13T04:43:18.812Z,102234.29
2019-05-13T04:44:54.769Z,102226.81
2019-05-13T04:46:32.756Z,102229.80
2019-05-13T04:48:08.540Z,102232.58
2019-05-13T04:49:44.434Z,102230.06
2019-05-13T04:51:22.593Z,102229.73
2019-05-13T04:52:57.906Z,102230.82
2019-05-13T04:54:34.315Z,102235.05
2019-05-13T04:56:13.768Z,102235.88
2019-05-13T04:57:48.716Z,102240.40
2019-05-13T04:59:24.616Z,102236.00
2019-05-13T05:01:52.240Z,102237.95
2019-05-13T05:03:44.864Z,102236.91
2019-05-13T05:05:45.233Z,102235.26
2019-05-13T05:07:58.748Z,102241.08
2019-05-13T05:10:02.819Z,102239.47
2019-05-13T05:11:43.174Z,102245.36
2019-05-13T05:14:02.484Z,102248.70
2019-05-13T05:16:28.981Z,102252.66
2019-05-13T05:18:32.884Z,102243.52
2019-05-13T05:20:23.130Z,102243.25
2019-05-13T05:22:15.313Z,102240.21
2019-05-13T05:24:22.027Z,102239.89
2019-05-13T05:26:21.950Z,102242.58
2019-05-13T05:28:12.740Z,102251.94
2019-05-13T05:30:26.059Z,102250.95
2019-05-13T05:32:15.198Z,102252.95
2019-05-13T05:34:23.855Z,102260.25
2019-05-13T05:38:46.439Z,102259.73
2019-05-13T05:40:31.452Z,102261.11
2019-05-13T05:42:02.796Z,102257.03
2019-05-13T05:43:45.352Z,102259.48
2019-05-13T05:45:21.915Z,102250.72
2019-05-13T05:47:02.558Z,102256.17
2019-05-13T05:48:42.033Z,102255.50
2019-05-13T05:50:18.072Z,102256.20
2019-05-13T05:52:03.256Z,102250.66
2019-05-13T05:53:42.744Z,102257.69
2019-05-13T05:55:18.308Z,102257.94
2019-05-13T05:56:56.691Z,102254.83
2019-05-13T05:58:34.446Z,102258.90
2019-05-13T06:00:11.610Z,102265.50
2019-05-13T06:01:52.372Z,102262.06
2019-05-13T06:03:29.254Z,102265.87
2019-05-13T06:05:07.536Z,102257.94
2019-05-13T06:06:43.884Z,102261.47
2019-05-13T06:08:22.047Z,102257.42
2019-05-13T06:09:57.729Z,102254.23
2019-05-13T06:11:34.393Z,102253.52
2019-05-13T06:13:12.181Z,102256.47
2019-05-13T06:14:48.462Z,102257.98
2019-05-13T06:16:25.192Z,102261.45
2019-05-13T06:18:02.295Z,102257.07
2019-05-13T06:19:38.665Z,102252.39
2019-05-13T06:21:14.187Z,102259.74
2019-05-13T06:22:51.593Z,102253.37
2019-05-13T06:24:27.271Z,102261.02
2019-05-13T06:26:03.997Z,102259.39
2019-05-13T06:27:39.551Z,102259.72
2019-05-13T06:29:17.052Z,102266.23
2019-05-13T06:30:52.583Z,102266.30
2019-05-13T06:32:31.237Z,102266.07
2019-05-13T06:34:06.082Z,102266.44
2019-05-13T06:35:44.735Z,102266.77
2019-05-13T06:37:21.535Z,102267.95
2019-05-13T06:38:57.254Z,102271.38
2019-05-13T06:40:32.762Z,102269.77
2019-05-13T06:42:11.445Z,102268.13
2019-05-13T06:43:46.268Z,102274.08
2019-05-13T06:45:23.597Z,102274.69
2019-05-13T06:46:59.126Z,102279.23
2019-05-13T06:48:35.421Z,102285.48
2019-05-13T06:50:11.925Z,102283.86
2019-05-13T06:51:48.248Z,102281.12
2019-05-13T06:53:23.771Z,102284.50
2019-05-13T06:55:02.677Z,102287.32
2019-05-13T06:56:37.518Z,102288.20
2019-05-13T06:58:13.772Z,102290.19
2019-05-13T06:59:49.302Z,102292.23
2019-05-13T07:01:26.453Z,102291.44
2019-05-13T07:03:02.419Z,102286.48
2019-05-13T07:04:38.741Z,102286.25
2019-05-13T07:06:14.689Z,102279.30
2019-05-13T07:07:51.369Z,102284.09
2019-05-13T07:09:26.923Z,102283.28
2019-05-13T07:11:17.164Z,102284.99
2019-05-13T07:12:41.171Z,102281.66
2019-05-13T07:14:17.726Z,102283.67
2019-05-13T07:15:53.248Z,102289.01
2019-05-13T07:17:32.201Z,102287.63
2019-05-13T07:19:06.722Z,102288.20
2019-05-13T07:20:43.605Z,102290.75
2019-05-13T07:22:22.609Z,102286.59
2019-05-13T07:23:57.141Z,102287.20
2019-05-13T07:25:32.864Z,102283.86
2019-05-13T07:27:09.122Z,102282.25
2019-05-13T07:28:44.699Z,102282.87
2019-05-13T07:30:42.494Z,102282.33
2019-05-13T07:32:21.950Z,102282.36
2019-05-13T07:33:57.572Z,102286.89
2019-05-13T07:35:37.965Z,102283.25
2019-05-13T07:37:11.527Z,102288.34
2019-05-13T07:38:47.928Z,102284.98
2019-05-13T07:40:23.889Z,102277.98
2019-05-13T07:42:04.699Z,102280.81
2019-05-13T07:43:38.457Z,102276.07
2019-05-13T07:45:14.856Z,102273.84
2019-05-13T07:46:52.294Z,102276.95
2019-05-13T07:48:28.850Z,102276.95
2019-05-13T07:50:07.817Z,102276.67
2019-05-13T07:51:43.713Z,102276.09
2019-05-13T07:53:22.027Z,102271.89
2019-05-13T07:54:57.269Z,102275.28
2019-05-13T07:56:33.163Z,102273.58
2019-05-13T07:58:11.329Z,102270.20
2019-05-13T07:59:46.719Z,102270.20
2019-05-13T08:01:23.685Z,102264.86
2019-05-13T08:03:01.533Z,102262.05
2019-05-13T08:04:37.196Z,102263.46
2019-05-13T08:06:13.706Z,102264.84
2019-05-13T08:07:51.511Z,102265.36
2019-05-13T08:09:27.349Z,102263.91
2019-05-13T08:11:03.341Z,102260.20
2019-05-13T08:12:41.277Z,102264.95
2019-05-13T08:14:17.193Z,102263.79
2019-05-13T08:15:54.719Z,102267.69
2019-05-13T08:17:32.731Z,102263.42
2019-05-13T08:19:08.430Z,102265.88
2019-05-13T08:20:44.333Z,102264.12
2019-05-13T08:22:22.112Z,102263.47
2019-05-13T08:23:57.819Z,102264.20
2019-05-13T08:25:33.742Z,102275.95
2019-05-13T08:27:11.823Z,102264.00
2019-05-13T08:29:00.076Z,102268.99
2019-05-13T08:30:24.903Z,102279.00
2019-05-13T08:32:02.858Z,102270.14
2019-05-13T08:33:38.731Z,102269.48
2019-05-13T08:35:15.365Z,102266.28
2019-05-13T08:36:51.494Z,102266.69
2019-05-13T08:38:27.442Z,102271.04
2019-05-13T08:40:03.518Z,102271.67
2019-05-13T08:41:39.412Z,102265.27
2019-05-13T08:43:16.435Z,102267.84
2019-05-13T08:44:52.714Z,102268.47
2019-05-13T08:46:28.666Z,102269.38
2019-05-13T08:48:04.610Z,102272.23
2019-05-13T08:49:41.488Z,102265.03
2019-05-13T08:51:17.581Z,102267.95
2019-05-13T08:52:53.474Z,102264.55
2019-05-13T08:54:29.358Z,102266.50
2019-05-13T08:56:05.362Z,102265.77
2019-05-13T08:57:42.042Z,102264.45
2019-05-13T08:59:18.049Z,102258.83
2019-05-13T09:00:58.952Z,102267.06
2019-05-13T09:02:33.940Z,102254.45
2019-05-13T09:04:11.860Z,102251.69
2019-05-13T09:05:47.799Z,102254.97
2019-05-13T09:07:24.476Z,102252.89
2019-05-13T09:09:02.400Z,102250.28
2019-05-13T09:10:38.037Z,102246.64
2019-05-13T09:12:28.592Z,102248.91
2019-05-13T09:13:52.088Z,102246.81
2019-05-13T09:15:27.986Z,102247.66
2019-05-13T09:17:03.915Z,102245.77
2019-05-13T09:18:42.445Z,102244.67
2019-05-13T09:20:17.839Z,102241.27
2019-05-13T09:21:53.730Z,102241.95
2019-05-13T09:23:31.433Z,102235.66
2019-05-13T09:25:07.481Z,102240.07
2019-05-13T09:26:44.615Z,102235.10
2019-05-13T09:28:21.818Z,102238.59
2019-05-13T09:29:57.861Z,102241.28
2019-05-13T09:31:33.792Z,102247.81
2019-05-13T09:33:11.475Z,102244.33
2019-05-13T09:34:47.459Z,102239.70
2019-05-13T09:36:23.386Z,102242.41
2019-05-13T09:38:02.962Z,102244.80
2019-05-13T09:39:37.012Z,102241.23
2019-05-13T09:41:12.916Z,102237.25
2019-05-13T09:42:52.063Z,102237.01
2019-05-13T09:44:26.400Z,102238.55
2019-05-13T09:46:02.936Z,102237.47
2019-05-13T09:47:38.839Z,102244.17
2019-05-13T09:49:19.735Z,102237.28
2019-05-13T09:50:52.363Z,102239.28
2019-05-13T09:52:28.293Z,102239.93
2019-05-13T09:54:04.181Z,102237.52
2019-05-13T09:55:41.546Z,102238.96
2019-05-13T09:57:17.567Z,102236.14
2019-05-13T09:58:53.499Z,102230.88
2019-05-13T10:00:32.095Z,102231.09
2019-05-13T10:02:07.005Z,102226.92
2019-05-13T10:03:53.756Z,102220.84
2019-05-13T10:05:22.404Z,102226.45
2019-05-13T10:07:01.547Z,102225.64
2019-05-13T10:08:36.371Z,102224.42
2019-05-13T10:10:12.779Z,102233.37
2019-05-13T10:11:48.661Z,102226.55
2019-05-13T10:13:24.580Z,102224.72
2019-05-13T10:15:02.020Z,102220.88
2019-05-13T10:16:38.236Z,102216.84
2019-05-13T10:18:14.129Z,102215.48
2019-05-13T10:19:52.004Z,102211.44
2019-05-13T10:21:27.992Z,102214.88
2019-05-13T10:23:03.897Z,102212.59
2019-05-13T10:24:42.076Z,102222.19
2019-05-13T10:26:17.545Z,102226.38
2019-05-13T10:27:53.708Z,102217.16
2019-05-13T10:29:31.668Z,102217.72
2019-05-13T10:31:07.979Z,102210.40
2019-05-13T10:32:43.942Z,102214.11
2019-05-13T10:34:22.069Z,102213.53
2019-05-13T10:35:58.038Z,102204.38
2019-05-13T10:37:33.986Z,102204.87
2019-05-13T10:39:11.911Z,102205.32
2019-05-13T10:40:48.196Z,102203.73
2019-05-13T10:42:24.104Z,102193.14
2019-05-13T10:44:02.926Z,102191.09
2019-05-13T10:45:38.135Z,102189.27
2019-05-13T10:47:14.047Z,102196.77
2019-05-13T10:48:52.436Z,102191.55
2019-05-13T10:50:27.856Z,102195.85
2019-05-13T10:52:04.034Z,102200.80
2019-05-13T10:53:42.662Z,102201.91
2019-05-13T10:55:21.435Z,102208.06
2019-05-13T10:56:59.726Z,102206.32
2019-05-13T10:58:33.841Z,102196.75
2019-05-13T11:00:12.236Z,102203.03
2019-05-13T11:01:48.280Z,102199.37
2019-05-13T11:03:24.328Z,102204.41
2019-05-13T11:05:02.973Z,102201.25
2019-05-13T11:06:37.819Z,102204.56
2019-05-13T11:08:13.811Z,102203.91
2019-05-13T11:09:52.435Z,102205.72
2019-05-13T11:11:27.284Z,102202.76
2019-05-13T11:13:06.141Z,102205.04
2019-05-13T11:14:42.221Z,102203.42
2019-05-13T11:16:18.371Z,102199.80
2019-05-13T11:17:54.281Z,102203.69
2019-05-13T11:19:36.773Z,102200.04
2019-05-13T11:21:13.049Z,102201.72
2019-05-13T11:22:48.009Z,102199.17
2019-05-13T11:24:23.900Z,102201.70
2019-05-13T11:26:02.806Z,102191.64
2019-05-13T11:27:37.402Z,102190.81
2019-05-13T11:29:13.659Z,102175.96
2019-05-13T11:30:51.901Z,102172.87
2019-05-13T11:32:27.495Z,102184.06
2019-05-13T11:34:03.406Z,102172.01
2019-05-13T11:35:41.503Z,102172.55
2019-05-13T11:37:17.058Z,102175.94
2019-05-13T11:40:31.818Z,102181.83
2019-05-13T11:42:07.844Z,102181.23
2019-05-13T11:43:43.747Z,102180.66
2019-05-13T11:45:22.374Z,102184.25
2019-05-13T11:46:57.702Z,102182.80
2019-05-13T11:48:33.770Z,102184.12
2019-05-13T11:50:11.571Z,102183.48
2019-05-13T11:51:47.741Z,102175.59
2019-05-13T11:53:32.653Z,102163.23
2019-05-13T11:55:02.538Z,102175.52
2019-05-13T11:56:46.348Z,102168.45
2019-05-13T11:58:17.151Z,102170.66
2019-05-13T11:59:53.093Z,102161.87
2019-05-13T12:01:29.246Z,102164.34
2019-05-13T12:03:05.128Z,102159.86
2019-05-13T12:04:43.344Z,102159.39
2019-05-13T12:06:22.888Z,102159.73
2019-05-13T12:07:56.615Z,102159.73
2019-05-13T12:09:32.552Z,102167.52
2019-05-13T12:11:08.474Z,102165.77
2019-05-13T12:12:44.468Z,102150.89
2019-05-13T12:14:42.987Z,102149.49
2019-05-13T12:15:58.311Z,102160.27
2019-05-13T12:17:34.216Z,102154.25
2019-05-13T12:19:11.795Z,102155.72
2019-05-13T12:20:47.717Z,102155.50
2019-05-13T12:22:23.612Z,102151.93
2019-05-13T12:24:07.234Z,102155.86
2019-05-13T12:25:37.394Z,102154.16
2019-05-13T12:27:13.286Z,102148.51
2019-05-13T12:28:53.199Z,102153.76
2019-05-13T12:30:27.554Z,102157.34
2019-05-13T12:32:03.581Z,102144.07
2019-05-13T12:33:43.804Z,102154.91
2019-05-13T12:35:17.240Z,102146.15
2019-05-13T12:36:53.131Z,102143.35
2019-05-13T12:38:32.550Z,102135.03
2019-05-13T12:40:07.466Z,102137.91
2019-05-13T12:41:43.357Z,102134.87
2019-05-13T12:43:19.279Z,102142.02
2019-05-13T12:46:32.757Z,102134.42
2019-05-13T12:48:13.652Z,102117.87
2019-05-13T12:49:47.575Z,102115.66
2019-05-13T12:51:23.486Z,102107.25
2019-05-13T12:53:02.543Z,102105.25
2019-05-13T12:54:37.311Z,102110.03
2019-05-13T12:56:13.203Z,102102.45
2019-05-13T12:57:52.066Z,102119.83
2019-05-13T12:59:27.705Z,102126.53
2019-05-13T13:01:03.937Z,102122.52
2019-05-13T13:02:39.825Z,102128.84
2019-05-13T13:04:15.732Z,102125.67
2019-05-13T13:05:51.726Z,102125.53
2019-05-13T13:07:28.719Z,102126.00
2019-05-13T13:09:06.370Z,102123.11
2019-05-13T13:10:42.474Z,102126.41
2019-05-13T13:12:18.339Z,102123.72
2019-05-13T13:13:59.602Z,102116.34
2019-05-13T13:15:40.718Z,102116.25
2019-05-13T13:17:12.209Z,102111.34
2019-05-13T13:18:47.490Z,102116.44
2019-05-13T13:20:24.276Z,102115.06
2019-05-13T13:23:38.115Z,102104.98
2019-05-13T13:25:14.323Z,102104.36
2019-05-13T13:26:53.387Z,102106.80
2019-05-13T13:28:29.357Z,102101.41
2019-05-13T13:30:08.820Z,102102.70
2019-05-13T13:31:44.710Z,102100.87
2019-05-13T13:33:20.626Z,102094.84
2019-05-13T13:34:56.541Z,102098.59
2019-05-13T13:36:33.812Z,102090.77
2019-05-13T13:38:10.227Z,102088.88
2019-05-13T13:39:46.560Z,102087.56
2019-05-13T13:41:23.048Z,102084.32
2019-05-13T13:43:04.016Z,102077.41
2019-05-13T13:44:37.641Z,102081.91
2019-05-13T13:46:32.758Z,102080.57
2019-05-13T13:48:02.180Z,102083.92
2019-05-13T13:49:34.904Z,102087.80
2019-05-13T13:51:08.239Z,102087.38
2019-05-13T13:52:45.603Z,102091.13
2019-05-13T13:54:22.530Z,102081.63
2019-05-13T13:55:58.593Z,102081.69
2019-05-13T13:57:34.482Z,102074.42
2019-05-13T13:59:13.859Z,102074.70
2019-05-13T14:01:01.735Z,102077.80
2019-05-13T14:02:26.874Z,102073.87
2019-05-13T14:04:04.244Z,102065.75
2019-05-13T14:05:42.763Z,102070.50
2019-05-13T14:06:33.328Z,102132.61
2019-05-13T14:06:52.391Z,102102.20
2019-05-13T14:07:02.975Z,102178.45
2019-05-13T14:07:27.975Z,102057.34
2019-05-13T14:08:55.289Z,102082.55
2019-05-13T14:10:31.929Z,102074.37
2019-05-13T14:12:08.274Z,102074.02
2019-05-13T14:13:44.183Z,102081.25
2019-05-13T14:15:21.532Z,102074.77
2019-05-13T14:16:57.899Z,102065.48
2019-05-13T14:18:33.790Z,102069.03
2019-05-13T14:20:10.237Z,102064.50
2019-05-13T14:21:46.130Z,102060.55
2019-05-13T14:23:22.003Z,102062.20
2019-05-13T14:24:57.975Z,102062.44
2019-05-13T14:26:33.886Z,102057.39
2019-05-13T14:28:09.876Z,102065.19
2019-05-13T14:29:49.173Z,102059.28
2019-05-13T14:31:23.413Z,102061.82
2019-05-13T14:32:59.303Z,102064.03
2019-05-13T14:34:35.200Z,102056.17
2019-05-13T14:36:12.286Z,102052.48
2019-05-13T14:37:48.394Z,102054.12
2019-05-13T14:39:25.324Z,102055.75
2019-05-13T14:41:03.085Z,102049.84
2019-05-13T14:42:39.265Z,102053.72
2019-05-13T14:44:15.184Z,102041.42
2019-05-13T14:45:52.116Z,102041.42
2019-05-13T14:47:28.159Z,102040.61
2019-05-13T14:49:04.310Z,102051.24
2019-05-13T14:50:41.651Z,102050.98
2019-05-13T14:52:17.701Z,102047.09
2019-05-13T14:53:53.921Z,102037.89
2019-05-13T14:55:31.909Z,102033.16
2019-05-13T14:57:07.409Z,102033.47
2019-05-13T14:58:43.625Z,102032.64
2019-05-13T15:00:22.080Z,102028.47
2019-05-13T15:01:58.116Z,102031.28
2019-05-13T15:03:34.834Z,102029.34
2019-05-13T15:05:12.138Z,102026.25
2019-05-13T15:06:49.447Z,102029.84
2019-05-13T15:08:26.040Z,102030.95
2019-05-13T15:10:02.565Z,102028.95
2019-05-13T15:11:38.591Z,102028.61
2019-05-13T15:13:15.152Z,102031.64
2019-05-13T15:14:52.395Z,102027.11
2019-05-13T15:16:31.713Z,102025.11
2019-05-13T15:18:07.122Z,102029.50
2019-05-13T15:19:43.005Z,102023.28
2019-05-13T15:21:21.248Z,102017.91
2019-05-13T15:22:56.503Z,102021.48
2019-05-13T15:24:32.723Z,102022.23
2019-05-13T15:26:08.720Z,102015.77
2019-05-13T15:27:44.615Z,102019.07
2019-05-13T15:29:22.377Z,102013.47
2019-05-13T15:30:58.466Z,102011.51
2019-05-13T15:32:35.607Z,102018.48
2019-05-13T15:34:11.998Z,102012.63
2019-05-13T15:35:48.038Z,102019.91
2019-05-13T15:37:23.982Z,102015.16
2019-05-13T15:39:01.492Z,102015.75
2019-05-13T15:40:38.852Z,102010.46
2019-05-13T15:42:15.210Z,102007.67
2019-05-13T15:43:51.878Z,102004.88
2019-05-13T15:45:27.981Z,102008.50
2019-05-13T15:47:18.167Z,101997.30
2019-05-13T15:48:42.263Z,102001.77
2019-05-13T15:50:18.225Z,102005.04
2019-05-13T15:51:54.146Z,102000.29
2019-05-13T15:53:32.039Z,102001.09
2019-05-13T15:55:11.452Z,102002.73
2019-05-13T15:56:46.972Z,101995.41
2019-05-13T15:58:38.064Z,102006.27
2019-05-13T16:00:01.911Z,102008.73
2019-05-13T16:01:41.487Z,102006.66
2019-05-13T16:03:17.967Z,102001.88
2019-05-13T16:05:00.949Z,102002.35
2019-05-13T16:06:32.140Z,102004.25
2019-05-13T16:08:08.150Z,102001.66
2019-05-13T16:09:44.054Z,101997.12
2019-05-13T16:11:22.040Z,102004.88
2019-05-13T16:12:57.584Z,102005.66
2019-05-13T16:14:33.510Z,102002.49
2019-05-13T16:16:12.131Z,101999.94
2019-05-13T16:17:47.595Z,102004.34
2019-05-13T16:19:23.469Z,102004.88
2019-05-13T16:21:01.523Z,102009.02
2019-05-13T16:22:36.983Z,102005.89
2019-05-13T16:24:12.883Z,102006.69
2019-05-13T16:25:48.801Z,102007.52
2019-05-13T16:27:24.694Z,102013.89
2019-05-13T16:29:02.096Z,102007.45
2019-05-13T16:30:38.386Z,102004.62
2019-05-13T16:32:14.280Z,102012.08
2019-05-13T16:33:52.199Z,102004.84
2019-05-13T16:35:28.367Z,102004.55
2019-05-13T16:37:05.601Z,102003.41
2019-05-13T16:38:41.860Z,101999.42
2019-05-13T16:40:18.232Z,102006.65
2019-05-13T16:41:54.221Z,102011.88
2019-05-13T16:43:31.981Z,102008.20
2019-05-13T16:45:07.921Z,102003.37
2019-05-13T16:46:43.824Z,102008.64
2019-05-13T16:48:21.534Z,102003.81
2019-05-13T16:49:57.563Z,102002.38
2019-05-13T16:51:33.477Z,102001.25
2019-05-13T16:53:10.343Z,102006.26
2019-05-13T16:54:46.239Z,102003.47
2019-05-13T16:56:27.793Z,102000.99
2019-05-13T16:58:02.019Z,102006.60
2019-05-13T16:59:41.646Z,102008.86
2019-05-13T17:01:17.903Z,102001.33
2019-05-13T17:02:53.738Z,102004.91
2019-05-13T17:04:31.946Z,102004.64
2019-05-13T17:06:07.211Z,102002.64
2019-05-13T17:07:43.478Z,102002.34
2019-05-13T17:09:19.284Z,102000.65
2019-05-13T17:10:55.546Z,102001.52
2019-05-13T17:12:31.724Z,101990.38
2019-05-13T17:14:08.103Z,101995.12
2019-05-13T17:15:43.632Z,101987.36
2019-05-13T17:17:19.915Z,101992.94
2019-05-13T17:18:55.460Z,101994.62
2019-05-13T17:20:32.224Z,101994.38
2019-05-13T17:22:07.838Z,101992.72
2019-05-13T17:23:44.126Z,102002.20
2019-05-13T17:25:19.649Z,101998.28
2019-05-13T17:26:55.901Z,102000.77
2019-05-13T17:28:34.060Z,101995.77
2019-05-13T17:30:11.591Z,101997.41
2019-05-13T17:31:47.249Z,101991.80
2019-05-13T17:33:23.524Z,101997.59
2019-05-13T17:34:59.301Z,101991.12
2019-05-13T17:36:35.569Z,101994.73
2019-05-13T17:38:11.501Z,101997.47
2019-05-13T17:39:48.141Z,101999.34
2019-05-13T17:41:23.666Z,101998.47
2019-05-13T17:42:59.956Z,102001.78
2019-05-13T17:44:35.505Z,102006.48
2019-05-13T17:46:11.765Z,102002.56
2019-05-13T17:47:47.349Z,101997.20
2019-05-13T17:49:23.595Z,102002.73
2019-05-13T17:51:01.128Z,102001.30
2019-05-13T17:52:37.078Z,102005.73
2019-05-13T17:54:12.629Z,102007.08
2019-05-13T17:55:51.240Z,102007.03
2019-05-13T17:57:26.773Z,102008.91
2019-05-13T17:59:03.397Z,102002.46
2019-05-13T18:00:38.908Z,102003.50
2019-05-13T18:02:15.172Z,102001.48
2019-05-13T18:03:51.800Z,102007.54
2019-05-13T18:05:31.372Z,102002.18
2019-05-13T18:07:06.767Z,102004.08
2019-05-13T18:08:43.108Z,102003.42
2019-05-13T18:10:19.369Z,102015.64
2019-05-13T18:11:55.638Z,102006.67
2019-05-13T18:13:31.712Z,102015.27
2019-05-13T18:15:08.886Z,102011.55
2019-05-13T18:16:44.393Z,102018.19
2019-05-13T18:18:21.554Z,102009.83
2019-05-13T18:19:57.194Z,102017.56
2019-05-13T18:21:33.784Z,102023.63
2019-05-13T18:23:09.400Z,102023.58
2019-05-13T18:24:45.982Z,102022.67
2019-05-13T18:26:21.751Z,102023.70
2019-05-13T18:27:58.079Z,102019.20
2019-05-13T18:29:33.621Z,102020.23
2019-05-13T18:31:12.244Z,102026.83
2019-05-13T18:32:47.838Z,102022.86
2019-05-13T18:34:24.118Z,102017.50